createdAt,value
2018-09-09T00:00:30.406Z,16.20
2018-09-09T00:02:58.693Z,12.03
2018-09-09T00:05:26.896Z,11.93
2018-09-09T00:07:55.081Z,15.50
2018-09-09T00:10:23.246Z,12.47
2018-09-09T00:12:51.481Z,14.80
2018-09-09T00:15:19.662Z,14.73
2018-09-09T00:17:47.885Z,15.30
2018-09-09T00:20:16.062Z,24.00
2018-09-09T00:22:44.292Z,19.63
2018-09-09T00:25:12.421Z,33.00
2018-09-09T00:27:40.604Z,29.90
2018-09-09T00:30:08.781Z,35.30
2018-09-09T00:32:36.965Z,34.30
2018-09-09T00:35:05.233Z,24.90
2018-09-09T00:37:33.433Z,16.27
2018-09-09T00:40:01.605Z,15.70
2018-09-09T00:42:29.797Z,18.03
2018-09-09T00:44:58.061Z,32.60
2018-09-09T00:47:26.264Z,39.67
2018-09-09T00:49:59.805Z,31.23
2018-09-09T00:52:33.350Z,56.27
2018-09-09T00:55:01.525Z,33.03
2018-09-09T00:57:29.733Z,25.00
2018-09-09T00:59:57.933Z,23.60
2018-09-09T01:02:26.125Z,24.63
2018-09-09T01:04:54.308Z,35.37
2018-09-09T01:07:22.488Z,25.37
2018-09-09T01:09:50.708Z,26.73
2018-09-09T01:12:18.973Z,20.87
2018-09-09T01:14:47.493Z,26.57
2018-09-09T01:17:15.746Z,20.03
2018-09-09T01:19:43.918Z,21.20
2018-09-09T01:22:12.134Z,20.93
2018-09-09T01:24:40.325Z,26.40
2018-09-09T01:27:08.628Z,21.63
2018-09-09T01:29:36.889Z,23.87
2018-09-09T01:32:05.105Z,23.20
2018-09-09T01:34:33.293Z,24.20
2018-09-09T01:37:01.561Z,24.80
2018-09-09T01:39:30.560Z,23.57
2018-09-09T01:41:58.752Z,23.37
2018-09-09T01:44:27.029Z,22.93
2018-09-09T01:46:55.241Z,27.33
2018-09-09T01:49:23.413Z,21.93
2018-09-09T01:51:51.594Z,25.13
2018-09-09T01:54:19.771Z,22.87
2018-09-09T01:56:47.975Z,27.20
2018-09-09T01:59:16.149Z,29.40
2018-09-09T02:01:44.350Z,25.60
2018-09-09T02:04:12.537Z,23.03
2018-09-09T02:06:40.714Z,22.90
2018-09-09T02:09:08.889Z,27.37
2018-09-09T02:11:37.085Z,21.97
2018-09-09T02:14:05.270Z,15.40
2018-09-09T02:16:33.558Z,18.53
2018-09-09T02:19:01.734Z,24.77
2018-09-09T02:21:29.906Z,16.93
2018-09-09T02:23:58.122Z,22.50
2018-09-09T02:26:26.409Z,17.70
2018-09-09T02:28:54.601Z,16.43
2018-09-09T02:31:22.885Z,16.90
2018-09-09T02:33:51.290Z,21.97
2018-09-09T02:36:19.449Z,16.57
2018-09-09T02:38:47.654Z,16.60
2018-09-09T02:41:15.929Z,17.93
2018-09-09T02:43:44.222Z,20.73
2018-09-09T02:46:12.320Z,20.63
2018-09-09T02:48:40.497Z,21.60
2018-09-09T02:51:08.677Z,25.33
2018-09-09T02:53:36.857Z,27.07
2018-09-09T02:56:10.721Z,31.70
2018-09-09T02:58:38.884Z,26.20
2018-09-09T03:01:07.450Z,24.97
2018-09-09T03:03:35.638Z,30.50
2018-09-09T03:06:03.818Z,31.20
2018-09-09T03:08:32.004Z,21.63
2018-09-09T03:11:05.481Z,21.40
2018-09-09T03:13:33.946Z,26.93
2018-09-09T03:16:02.128Z,22.10
2018-09-09T03:18:30.418Z,27.00
2018-09-09T03:20:58.590Z,21.93
2018-09-09T03:23:26.789Z,25.97
2018-09-09T03:25:54.970Z,23.70
2018-09-09T03:28:23.605Z,31.53
2018-09-09T03:30:51.739Z,24.33
2018-09-09T03:33:19.917Z,33.53
2018-09-09T03:35:48.158Z,22.60
2018-09-09T03:38:16.669Z,26.53
2018-09-09T03:40:44.838Z,22.63
2018-09-09T03:43:13.039Z,19.80
2018-09-09T03:45:41.225Z,24.77
2018-09-09T03:48:09.409Z,26.37
2018-09-09T03:50:37.589Z,24.33
2018-09-09T03:53:05.823Z,28.70
2018-09-09T03:55:34.049Z,27.67
2018-09-09T03:58:02.505Z,20.83
2018-09-09T04:00:30.894Z,22.10
2018-09-09T04:02:59.085Z,24.73
2018-09-09T04:05:27.258Z,24.27
2018-09-09T04:07:55.509Z,26.80
2018-09-09T04:10:23.761Z,24.53
2018-09-09T04:12:51.995Z,21.63
2018-09-09T04:15:20.165Z,25.50
2018-09-09T04:17:48.425Z,24.30
2018-09-09T04:20:16.598Z,23.47
2018-09-09T04:22:44.810Z,22.07
2018-09-09T04:25:13.006Z,31.43
2018-09-09T04:27:41.186Z,35.63
2018-09-09T04:30:09.461Z,21.23
2018-09-09T04:32:37.656Z,20.93
2018-09-09T04:35:05.846Z,22.20
2018-09-09T04:37:34.126Z,20.20
2018-09-09T04:40:07.675Z,20.17
2018-09-09T04:42:35.877Z,21.40
2018-09-09T04:45:04.113Z,23.70
2018-09-09T04:47:32.402Z,21.97
2018-09-09T04:50:00.659Z,17.53
2018-09-09T04:52:28.873Z,32.53
2018-09-09T04:54:57.157Z,21.90
2018-09-09T04:57:25.453Z,21.43
2018-09-09T04:59:53.633Z,19.60
2018-09-09T05:02:21.826Z,21.83
2018-09-09T05:04:50.102Z,25.77
2018-09-09T05:07:18.297Z,19.93
2018-09-09T05:09:46.581Z,26.20
2018-09-09T05:12:14.801Z,19.10
2018-09-09T05:14:43.057Z,22.53
2018-09-09T05:17:11.254Z,19.20
2018-09-09T05:19:39.445Z,21.13
2018-09-09T05:22:07.633Z,19.63
2018-09-09T05:24:35.817Z,22.37
2018-09-09T05:27:04.101Z,24.37
2018-09-09T05:29:32.273Z,20.37
2018-09-09T05:32:00.457Z,19.37
2018-09-09T05:34:28.657Z,20.13
2018-09-09T05:36:56.838Z,21.20
2018-09-09T05:39:25.018Z,17.37
2018-09-09T05:41:53.230Z,23.10
2018-09-09T05:44:21.416Z,25.03
2018-09-09T05:46:49.693Z,22.13
2018-09-09T05:49:17.865Z,20.90
2018-09-09T05:51:46.049Z,19.87
2018-09-09T05:54:14.224Z,18.10
2018-09-09T05:56:42.413Z,18.60
2018-09-09T05:59:10.591Z,19.63
2018-09-09T06:01:38.774Z,18.13
2018-09-09T06:04:07.018Z,25.60
2018-09-09T06:06:35.220Z,21.93
2018-09-09T06:09:03.606Z,16.50
2018-09-09T06:11:31.791Z,16.93
2018-09-09T06:14:00.041Z,25.80
2018-09-09T06:16:28.225Z,21.80
2018-09-09T06:18:56.422Z,18.70
2018-09-09T06:21:24.601Z,17.67
2018-09-09T06:23:52.779Z,20.03
2018-09-09T06:26:20.961Z,18.60
2018-09-09T06:28:49.149Z,17.73
2018-09-09T06:31:17.431Z,17.53
2018-09-09T06:33:45.651Z,14.37
2018-09-09T06:36:13.813Z,21.00
2018-09-09T06:38:41.994Z,15.83
2018-09-09T06:41:10.237Z,18.67
2018-09-09T06:43:38.488Z,18.70
2018-09-09T06:46:06.696Z,16.27
2018-09-09T06:48:34.990Z,20.93
2018-09-09T06:51:03.441Z,15.70
2018-09-09T06:53:32.365Z,14.67
2018-09-09T06:56:00.551Z,22.80
2018-09-09T06:58:28.717Z,13.57
2018-09-09T07:00:56.938Z,15.67
2018-09-09T07:03:25.110Z,14.60
2018-09-09T07:05:53.401Z,20.63
2018-09-09T07:08:21.578Z,14.23
2018-09-09T07:10:49.893Z,18.07
2018-09-09T07:13:18.066Z,12.63
2018-09-09T07:15:46.269Z,17.17
2018-09-09T07:18:14.556Z,18.47
2018-09-09T07:20:42.837Z,16.20
2018-09-09T07:23:11.008Z,19.33
2018-09-09T07:25:39.303Z,15.23
2018-09-09T07:28:07.513Z,16.43
2018-09-09T07:30:35.714Z,17.50
2018-09-09T07:33:03.893Z,16.67
2018-09-09T07:35:32.073Z,17.03
2018-09-09T07:38:00.341Z,15.40
2018-09-09T07:40:28.742Z,19.23
2018-09-09T07:42:57.001Z,16.17
2018-09-09T07:45:25.197Z,15.80
2018-09-09T07:47:53.402Z,16.90
2018-09-09T07:50:21.669Z,16.03
2018-09-09T07:52:49.849Z,14.57
2018-09-09T07:55:18.031Z,17.70
2018-09-09T07:57:46.233Z,15.30
2018-09-09T08:00:14.419Z,13.73
2018-09-09T08:02:42.660Z,20.70
2018-09-09T08:05:10.857Z,18.23
2018-09-09T08:07:39.046Z,18.77
2018-09-09T08:10:07.311Z,15.83
2018-09-09T08:12:35.505Z,19.87
2018-09-09T08:15:03.789Z,13.60
2018-09-09T08:17:32.031Z,15.10
2018-09-09T08:20:00.328Z,18.73
2018-09-09T08:22:28.538Z,15.57
2018-09-09T08:24:56.789Z,24.43
2018-09-09T08:27:24.996Z,25.77
2018-09-09T08:29:53.173Z,13.80
2018-09-09T08:32:21.461Z,16.90
2018-09-09T08:34:49.725Z,14.13
2018-09-09T08:37:17.981Z,13.30
2018-09-09T08:39:46.225Z,18.83
2018-09-09T08:42:14.513Z,11.43
2018-09-09T08:44:42.686Z,16.33
2018-09-09T08:47:10.892Z,16.27
2018-09-09T08:49:39.213Z,14.83
2018-09-09T08:52:07.489Z,14.33
2018-09-09T08:54:35.669Z,24.33
2018-09-09T08:57:04.011Z,13.30
2018-09-09T09:00:35.385Z,13.40
2018-09-09T09:03:03.613Z,11.03
2018-09-09T09:05:31.881Z,15.63
2018-09-09T09:08:00.190Z,13.90
2018-09-09T09:10:28.361Z,12.40
2018-09-09T09:12:56.558Z,12.07
2018-09-09T09:15:25.162Z,12.60
2018-09-09T09:17:53.582Z,17.30
2018-09-09T09:20:21.809Z,11.37
2018-09-09T09:22:50.018Z,14.70
2018-09-09T09:25:18.289Z,13.40
2018-09-09T09:27:46.573Z,11.30
2018-09-09T09:30:15.069Z,8.77
2018-09-09T09:32:47.254Z,9.87
2018-09-09T09:35:15.453Z,10.27
2018-09-09T09:37:44.029Z,12.60
2018-09-09T09:40:12.263Z,10.80
2018-09-09T09:42:40.529Z,15.47
2018-09-09T09:45:08.810Z,13.90
2018-09-09T09:47:37.097Z,10.63
2018-09-09T09:50:05.397Z,10.10
2018-09-09T09:52:33.677Z,12.67
2018-09-09T09:55:01.912Z,9.30
2018-09-09T09:57:30.052Z,10.23
2018-09-09T09:59:58.354Z,10.10
2018-09-09T10:02:26.563Z,11.20
2018-09-09T10:04:54.801Z,10.23
2018-09-09T10:07:22.998Z,8.23
2018-09-09T10:09:51.185Z,10.13
2018-09-09T10:12:19.370Z,7.47
2018-09-09T10:14:47.566Z,8.23
2018-09-09T10:17:15.890Z,10.20
2018-09-09T10:19:44.138Z,11.47
2018-09-09T10:22:13.485Z,7.50
2018-09-09T10:24:41.685Z,16.30
2018-09-09T10:27:09.865Z,7.10
2018-09-09T10:29:38.141Z,7.00
2018-09-09T10:32:06.474Z,13.43
2018-09-09T10:34:34.685Z,7.53
2018-09-09T10:37:02.899Z,9.17
2018-09-09T10:39:31.163Z,7.60
2018-09-09T10:41:59.361Z,6.33
2018-09-09T10:44:27.649Z,6.53
2018-09-09T10:46:55.835Z,13.63
2018-09-09T10:49:24.177Z,10.90
2018-09-09T10:51:52.533Z,5.70
2018-09-09T10:54:20.814Z,11.73
2018-09-09T10:56:49.093Z,16.80
2018-09-09T10:59:17.482Z,6.40
2018-09-09T11:01:45.775Z,6.77
2018-09-09T11:04:14.054Z,8.87
2018-09-09T11:06:42.258Z,8.33
2018-09-09T11:09:10.821Z,7.30
2018-09-09T11:11:39.034Z,6.13
2018-09-09T11:14:07.351Z,6.83
2018-09-09T11:16:35.683Z,6.50
2018-09-09T11:19:03.905Z,7.50
2018-09-09T11:21:32.691Z,7.07
2018-09-09T11:24:08.760Z,6.87
2018-09-09T11:26:37.571Z,7.13
2018-09-09T11:29:06.774Z,9.50
2018-09-09T11:31:35.182Z,7.33
2018-09-09T11:36:38.136Z,7.77
2018-09-09T11:39:08.114Z,8.03
2018-09-09T11:41:36.463Z,10.50
2018-09-09T11:44:04.777Z,7.23
2018-09-09T11:46:33.371Z,12.03
2018-09-09T11:49:02.017Z,6.50
2018-09-09T11:51:30.233Z,8.60
2018-09-09T11:53:58.555Z,8.10
2018-09-09T11:56:27.430Z,6.70
2018-09-09T11:58:56.031Z,6.77
2018-09-09T12:01:24.324Z,7.10
2018-09-09T12:03:52.537Z,8.83
2018-09-09T12:06:20.781Z,7.20
2018-09-09T12:08:51.173Z,34.83
2018-09-09T12:11:19.438Z,12.10
2018-09-09T12:13:48.435Z,6.63
2018-09-09T12:16:16.717Z,7.83
2018-09-09T12:18:45.069Z,8.97
2018-09-09T12:21:13.281Z,6.07
2018-09-09T12:23:41.616Z,15.47
2018-09-09T12:26:09.810Z,5.70
2018-09-09T12:28:38.106Z,6.83
2018-09-09T12:31:06.487Z,9.63
2018-09-09T12:33:34.822Z,10.80
2018-09-09T12:36:03.087Z,9.30
2018-09-09T12:38:31.337Z,10.03
2018-09-09T12:40:59.630Z,9.80
2018-09-09T12:43:33.291Z,18.20
2018-09-09T12:46:06.673Z,11.00
2018-09-09T12:48:40.274Z,7.03
2018-09-09T12:51:08.637Z,16.93
2018-09-09T12:53:36.942Z,13.97
2018-09-09T12:56:05.373Z,7.27
2018-09-09T12:58:33.659Z,6.40
2018-09-09T13:01:01.886Z,12.33
2018-09-09T13:03:30.207Z,7.00
2018-09-09T13:05:58.479Z,12.93
2018-09-09T13:08:26.749Z,6.17
2018-09-09T13:10:55.022Z,6.10
2018-09-09T13:13:23.214Z,6.13
2018-09-09T13:15:51.401Z,11.83
2018-09-09T13:18:20.106Z,6.60
2018-09-09T13:20:48.277Z,7.00
2018-09-09T13:23:16.454Z,5.77
2018-09-09T13:25:44.679Z,6.10
2018-09-09T13:28:13.030Z,5.30
2018-09-09T13:30:41.227Z,6.80
2018-09-09T13:33:09.569Z,5.90
2018-09-09T13:35:37.742Z,6.63
2018-09-09T13:38:06.062Z,9.20
2018-09-09T13:40:34.318Z,5.73
2018-09-09T13:43:02.634Z,6.80
2018-09-09T13:45:30.843Z,8.63
2018-09-09T13:47:59.136Z,10.53
2018-09-09T13:50:27.342Z,6.60
2018-09-09T13:52:55.599Z,7.90
2018-09-09T13:55:23.774Z,6.20
2018-09-09T13:57:52.018Z,6.27
2018-09-09T14:00:20.199Z,6.57
2018-09-09T14:02:48.398Z,6.80
2018-09-09T14:05:16.585Z,6.20
2018-09-09T14:07:45.738Z,7.50
2018-09-09T14:10:14.032Z,11.50
2018-09-09T14:12:42.209Z,6.17
2018-09-09T14:15:10.511Z,9.03
2018-09-09T14:17:38.693Z,6.10
2018-09-09T14:20:06.906Z,7.43
2018-09-09T14:22:35.287Z,6.67
2018-09-09T14:25:03.453Z,6.70
2018-09-09T14:27:31.741Z,8.80
2018-09-09T14:30:00.030Z,7.70
2018-09-09T14:32:28.225Z,6.30
2018-09-09T14:34:56.489Z,6.20
2018-09-09T14:37:24.693Z,6.60
2018-09-09T14:39:58.715Z,6.40
2018-09-09T14:42:26.902Z,6.60
2018-09-09T14:44:55.214Z,6.00
2018-09-09T14:47:23.581Z,9.97
2018-09-09T14:49:51.750Z,8.40
2018-09-09T14:52:19.953Z,8.43
2018-09-09T14:54:48.154Z,7.70
2018-09-09T14:57:16.336Z,9.03
2018-09-09T14:59:44.785Z,7.60
2018-09-09T15:02:13.010Z,7.20
2018-09-09T15:04:41.316Z,6.33
2018-09-09T15:07:09.582Z,6.53
2018-09-09T15:09:37.969Z,6.27
2018-09-09T15:12:06.290Z,7.80
2018-09-09T15:14:34.631Z,5.90
2018-09-09T15:17:03.118Z,6.50
2018-09-09T15:19:31.378Z,5.97
2018-09-09T15:21:59.721Z,6.93
2018-09-09T15:24:27.905Z,7.53
2018-09-09T15:26:56.119Z,6.33
2018-09-09T15:29:24.374Z,7.07
2018-09-09T15:31:52.549Z,6.00
2018-09-09T15:34:20.789Z,6.23
2018-09-09T15:36:48.898Z,6.60
2018-09-09T15:39:17.126Z,6.33
2018-09-09T15:41:45.420Z,5.63
2018-09-09T15:44:13.591Z,9.40
2018-09-09T15:46:41.778Z,6.67
2018-09-09T15:49:09.955Z,6.00
2018-09-09T15:51:38.186Z,5.67
2018-09-09T15:54:06.454Z,5.97
2018-09-09T15:56:34.649Z,6.93
2018-09-09T15:59:02.926Z,5.67
2018-09-09T16:01:31.121Z,6.00
2018-09-09T16:03:59.401Z,6.63
2018-09-09T16:06:27.594Z,6.17
2018-09-09T16:08:55.784Z,6.00
2018-09-09T16:11:23.969Z,7.10
2018-09-09T16:13:52.176Z,8.00
2018-09-09T16:16:20.346Z,7.00
2018-09-09T16:18:48.607Z,6.83
2018-09-09T16:21:16.854Z,5.70
2018-09-09T16:23:45.110Z,6.20
2018-09-09T16:26:13.416Z,8.30
2018-09-09T16:28:41.689Z,6.70
2018-09-09T16:31:10.061Z,7.47
2018-09-09T16:33:38.301Z,7.67
2018-09-09T16:36:06.565Z,7.30
2018-09-09T16:38:34.837Z,6.57
2018-09-09T16:41:03.029Z,6.93
2018-09-09T16:43:31.302Z,8.00
2018-09-09T16:45:59.461Z,11.57
2018-09-09T16:48:44.315Z,7.23
2018-09-09T16:51:12.562Z,5.93
2018-09-09T16:53:40.761Z,10.80
2018-09-09T16:56:09.053Z,9.90
2018-09-09T16:58:37.345Z,6.50
2018-09-09T17:01:05.667Z,7.30
2018-09-09T17:03:33.914Z,7.10
2018-09-09T17:06:02.193Z,9.53
2018-09-09T17:08:30.414Z,20.47
2018-09-09T17:10:58.662Z,7.73
2018-09-09T17:13:26.878Z,9.20
2018-09-09T17:15:55.182Z,9.73
2018-09-09T17:18:23.566Z,10.20
2018-09-09T17:20:51.859Z,10.07
2018-09-09T17:23:20.122Z,7.87
2018-09-09T17:25:48.406Z,6.87
2018-09-09T17:28:16.590Z,7.80
2018-09-09T17:30:49.163Z,6.90
2018-09-09T17:33:17.373Z,6.97
2018-09-09T17:35:45.653Z,6.63
2018-09-09T17:38:13.834Z,7.40
2018-09-09T17:40:42.025Z,7.50
2018-09-09T17:43:10.213Z,6.93
2018-09-09T17:45:38.513Z,6.83
2018-09-09T17:48:06.798Z,7.77
2018-09-09T17:50:35.071Z,7.10
2018-09-09T17:53:03.401Z,7.03
2018-09-09T17:55:31.738Z,6.93
2018-09-09T17:57:59.949Z,8.87
2018-09-09T18:00:28.125Z,7.00
2018-09-09T18:02:56.322Z,6.77
2018-09-09T18:05:24.485Z,8.30
2018-09-09T18:07:52.698Z,8.93
2018-09-09T18:10:20.869Z,11.30
2018-09-09T18:12:49.041Z,10.30
2018-09-09T18:15:17.210Z,9.70
2018-09-09T18:17:45.462Z,7.73
2018-09-09T18:20:13.800Z,8.83
2018-09-09T18:22:41.975Z,9.87
2018-09-09T18:25:10.113Z,15.10
2018-09-09T18:27:38.451Z,11.50
2018-09-09T18:30:06.707Z,21.70
2018-09-09T18:32:34.894Z,10.53
2018-09-09T18:35:03.107Z,10.60
2018-09-09T18:37:31.242Z,7.43
2018-09-09T18:39:59.399Z,7.80
2018-09-09T18:42:27.577Z,7.73
2018-09-09T18:44:55.768Z,8.43
2018-09-09T18:47:23.918Z,7.87
2018-09-09T18:49:52.193Z,14.13
2018-09-09T18:52:20.457Z,13.53
2018-09-09T18:54:48.625Z,23.13
2018-09-09T18:57:16.840Z,22.40
2018-09-09T18:59:45.090Z,18.97
2018-09-09T19:02:13.270Z,15.17
2018-09-09T19:04:41.446Z,19.00
2018-09-09T19:07:09.625Z,12.30
2018-09-09T19:09:37.886Z,13.27
2018-09-09T19:12:06.547Z,14.30
2018-09-09T19:14:34.913Z,17.27
2018-09-09T19:17:03.168Z,13.43
2018-09-09T19:19:31.441Z,9.93
2018-09-09T19:21:59.633Z,13.23
2018-09-09T19:24:27.806Z,25.10
2018-09-09T19:26:55.998Z,15.30
2018-09-09T19:29:24.283Z,15.17
2018-09-09T19:31:52.534Z,14.00
2018-09-09T19:34:20.833Z,15.20
2018-09-09T19:36:49.001Z,14.00
2018-09-09T19:39:17.254Z,14.67
2018-09-09T19:41:45.569Z,11.17
2018-09-09T19:44:13.910Z,14.17
2018-09-09T19:46:42.047Z,15.87
2018-09-09T19:49:10.294Z,9.73
2018-09-09T19:51:38.509Z,10.90
2018-09-09T19:54:06.776Z,11.90
2018-09-09T19:56:34.961Z,16.00
2018-09-09T19:59:03.135Z,15.27
2018-09-09T20:01:31.340Z,22.13
2018-09-09T20:03:59.615Z,12.00
2018-09-09T20:06:27.807Z,11.20
2018-09-09T20:08:56.405Z,14.33
2018-09-09T20:11:24.586Z,10.23
2018-09-09T20:13:52.757Z,24.93
2018-09-09T20:16:21.055Z,9.87
2018-09-09T20:18:49.341Z,9.20
2018-09-09T20:21:17.533Z,9.40
2018-09-09T20:23:46.121Z,13.17
2018-09-09T20:26:14.345Z,23.93
2018-09-09T20:28:42.709Z,12.07
2018-09-09T20:31:10.909Z,9.73
2018-09-09T20:33:39.175Z,12.60
2018-09-09T20:36:07.353Z,12.50
2018-09-09T20:38:35.603Z,10.17
2018-09-09T20:41:03.867Z,13.83
2018-09-09T20:43:32.129Z,9.67
2018-09-09T20:46:00.341Z,14.93
2018-09-09T20:48:28.616Z,16.10
2018-09-09T20:50:56.899Z,17.00
2018-09-09T20:53:25.206Z,7.87
2018-09-09T20:55:53.485Z,15.50
2018-09-09T20:58:21.711Z,9.70
2018-09-09T21:00:49.917Z,12.30
2018-09-09T21:03:18.130Z,11.60
2018-09-09T21:05:46.306Z,12.23
2018-09-09T21:08:16.698Z,15.07
2018-09-09T21:10:44.925Z,9.83
2018-09-09T21:13:13.158Z,12.73
2018-09-09T21:15:41.389Z,10.87
2018-09-09T21:18:09.585Z,16.07
2018-09-09T21:20:38.401Z,10.83
2018-09-09T21:23:07.376Z,11.43
2018-09-09T21:25:35.797Z,8.73
2018-09-09T21:28:04.743Z,14.00
2018-09-09T21:30:33.316Z,10.30
2018-09-09T21:33:01.763Z,10.00
2018-09-09T21:35:30.090Z,15.20
2018-09-09T21:37:58.741Z,15.23
2018-09-09T21:40:26.999Z,10.23
2018-09-09T21:42:55.225Z,16.40
2018-09-09T21:45:23.495Z,11.90
2018-09-09T21:47:51.715Z,11.40
2018-09-09T21:50:19.885Z,11.10
2018-09-09T21:52:48.081Z,12.43
2018-09-09T21:55:16.275Z,10.03
2018-09-09T21:57:44.449Z,15.43
2018-09-09T22:03:52.933Z,11.33
2018-09-09T22:06:21.209Z,16.17
2018-09-09T22:08:49.393Z,21.27
2018-09-09T22:11:17.597Z,17.60
2018-09-09T22:13:45.902Z,16.13
2018-09-09T22:16:14.166Z,19.50
2018-09-09T22:18:42.449Z,26.00
2018-09-09T22:21:10.741Z,24.53
2018-09-09T22:23:39.054Z,14.87
2018-09-09T22:26:07.229Z,19.73
2018-09-09T22:28:35.565Z,22.90
2018-09-09T22:31:03.806Z,19.03
2018-09-09T22:33:32.073Z,12.27
2018-09-09T22:36:00.374Z,25.37
2018-09-09T22:38:28.588Z,16.30
2018-09-09T22:40:56.851Z,17.30
2018-09-09T22:43:25.257Z,19.37
2018-09-09T22:45:59.150Z,18.20
2018-09-09T22:48:28.273Z,20.43
2018-09-09T22:50:56.743Z,17.73
2018-09-09T22:53:24.946Z,16.03
2018-09-09T22:55:53.389Z,16.60
2018-09-09T22:58:21.645Z,16.87
2018-09-09T23:00:49.954Z,21.57
2018-09-09T23:03:23.453Z,23.83
2018-09-09T23:05:59.598Z,15.40
2018-09-09T23:08:33.513Z,26.77
2018-09-09T23:11:01.726Z,32.80
2018-09-09T23:13:30.006Z,24.77
2018-09-09T23:15:58.305Z,17.90
2018-09-09T23:18:26.581Z,18.07
2018-09-09T23:20:54.889Z,22.17
2018-09-09T23:23:23.375Z,18.90
2018-09-09T23:25:51.649Z,30.17
2018-09-09T23:28:19.941Z,18.77
2018-09-09T23:30:48.233Z,18.90
2018-09-09T23:33:16.518Z,18.03
2018-09-09T23:35:44.862Z,17.40
2018-09-09T23:38:13.101Z,18.87
2018-09-09T23:40:41.445Z,15.17
2018-09-09T23:43:09.686Z,17.37
2018-09-09T23:45:38.042Z,15.50
2018-09-09T23:48:06.263Z,20.10
2018-09-09T23:50:34.625Z,26.30
2018-09-09T23:53:02.857Z,28.43
2018-09-09T23:55:31.169Z,24.70
2018-09-09T23:57:59.695Z,24.43
